createdAt,value
2018-03-20T00:16:53.863Z,8.20
2018-03-20T00:19:23.390Z,8.00
2018-03-20T00:21:51.156Z,8.00
2018-03-20T00:24:20.878Z,8.00
2018-03-20T01:54:50.840Z,13.00
2018-03-20T01:57:19.933Z,13.00
2018-03-20T01:59:47.839Z,13.10
2018-03-20T02:02:15.546Z,13.20
2018-03-20T02:04:45.407Z,13.20
2018-03-20T02:07:12.984Z,13.30
2018-03-20T02:09:53.181Z,13.40
2018-03-20T02:12:22.911Z,13.40
2018-03-20T02:14:50.572Z,13.20
2018-03-20T02:17:18.915Z,12.90
2018-03-20T02:19:48.317Z,12.50
2018-03-20T02:22:15.931Z,12.20
2018-03-20T02:24:44.933Z,12.00
2018-03-20T02:27:14.912Z,11.80
2018-03-20T02:29:46.128Z,11.60
2018-03-20T02:32:33.402Z,11.40
2018-03-20T02:35:02.251Z,11.30
2018-03-20T02:37:32.296Z,11.10
2018-03-20T02:40:04.169Z,11.00
2018-03-20T02:42:47.001Z,10.90
2018-03-20T02:45:16.970Z,10.90
2018-03-20T02:47:57.261Z,10.80
2018-03-20T02:50:27.916Z,10.70
2018-03-20T02:53:00.917Z,10.60
2018-03-20T02:55:53.181Z,10.60
2018-03-20T02:58:23.283Z,10.60
2018-03-20T03:00:52.624Z,10.50
2018-03-20T03:03:20.793Z,10.50
2018-03-20T03:05:49.295Z,10.40
2018-03-20T03:11:09.343Z,10.30
2018-03-20T03:13:41.974Z,10.30
2018-03-20T03:16:11.802Z,10.30
2018-03-20T03:21:47.779Z,10.10
2018-03-20T03:24:21.928Z,10.20
2018-03-20T03:26:50.382Z,10.10
2018-03-20T03:29:37.369Z,10.10
2018-03-20T03:38:01.268Z,10.00
2018-03-20T03:40:31.848Z,10.00
2018-03-20T03:45:58.548Z,10.00
2018-03-20T03:48:44.446Z,9.90
2018-03-20T03:51:20.497Z,9.90
2018-03-20T03:53:54.092Z,9.90
2018-03-20T03:56:22.414Z,9.80
2018-03-20T03:58:50.433Z,9.80
2018-03-20T04:01:19.783Z,9.80
2018-03-20T04:03:48.817Z,9.80
2018-03-20T04:06:20.330Z,9.80
2018-03-20T04:08:49.846Z,9.70
2018-03-20T04:11:23.616Z,9.70
2018-03-20T04:14:01.307Z,9.70
2018-03-20T04:16:34.301Z,9.70
2018-03-20T04:19:04.475Z,9.70
2018-03-20T04:21:33.478Z,9.70
2018-03-20T04:26:55.642Z,9.60
2018-03-20T04:29:25.501Z,9.60
2018-03-20T04:31:56.322Z,9.50
2018-03-20T04:34:24.460Z,9.50
2018-03-20T04:36:55.594Z,9.50
2018-03-20T04:42:24.962Z,9.50
2018-03-20T04:44:58.164Z,9.40
2018-03-20T04:47:46.408Z,9.50
2018-03-20T04:50:20.189Z,9.40
2018-03-20T04:55:44.092Z,9.40
2018-03-20T04:58:11.689Z,9.40
2018-03-20T05:00:42.361Z,9.40
2018-03-20T05:03:17.287Z,9.40
2018-03-20T05:05:49.477Z,9.40
2018-03-20T05:08:18.380Z,9.40
2018-03-20T05:11:01.254Z,9.40
2018-03-20T05:16:22.792Z,9.40
2018-03-20T05:18:59.323Z,9.30
2018-03-20T05:25:05.335Z,9.30
2018-03-20T05:27:33.022Z,9.30
2018-03-20T05:30:22.963Z,9.30
2018-03-20T05:32:52.278Z,9.30
2018-03-20T05:35:21.909Z,9.30
2018-03-20T05:37:59.249Z,9.30
2018-03-20T05:40:29.752Z,9.30
2018-03-20T05:42:57.528Z,9.30
2018-03-20T05:45:37.336Z,9.30
2018-03-20T05:48:13.052Z,9.30
2018-03-20T05:53:34.331Z,9.20
2018-03-20T07:08:59.549Z,9.00
2018-03-20T07:11:28.646Z,9.00
2018-03-20T07:13:59.654Z,9.00
2018-03-20T07:16:29.091Z,9.10
2018-03-20T07:19:02.384Z,9.00
2018-03-20T07:21:33.585Z,9.00
2018-03-20T07:27:18.451Z,9.00
2018-03-20T07:35:35.680Z,9.00
2018-03-20T07:38:04.192Z,9.00
2018-03-20T07:43:25.255Z,9.00
2018-03-20T07:45:53.907Z,9.00
2018-03-20T07:48:30.745Z,9.00
2018-03-20T07:50:59.513Z,9.00
2018-03-20T07:53:28.214Z,9.10
2018-03-20T07:55:55.954Z,9.00
2018-03-20T07:58:24.472Z,9.10
2018-03-20T08:00:53.580Z,9.10
2018-03-20T08:03:21.648Z,9.10
2018-03-20T08:05:49.478Z,9.10
2018-03-20T08:08:17.644Z,9.10
2018-03-20T08:10:47.074Z,9.10
2018-03-20T08:16:09.101Z,9.10
2018-03-20T08:18:39.014Z,9.00
2018-03-20T08:24:04.351Z,9.00
2018-03-20T08:26:35.201Z,9.00
2018-03-20T08:34:52.538Z,9.00
2018-03-20T08:37:21.261Z,9.00
2018-03-20T08:39:50.307Z,9.10
2018-03-20T08:42:21.631Z,9.00
2018-03-20T08:44:53.772Z,9.10
2018-03-20T08:47:25.293Z,9.10
2018-03-20T08:49:56.671Z,9.10
2018-03-20T08:52:26.238Z,9.10
2018-03-20T08:54:54.511Z,9.10
2018-03-20T08:57:22.169Z,9.00
2018-03-20T08:59:50.498Z,9.00
2018-03-20T09:05:18.386Z,9.00
2018-03-20T09:07:48.877Z,9.00
2018-03-20T09:10:16.527Z,9.00
2018-03-20T10:21:41.532Z,9.00
2018-03-20T10:27:03.278Z,9.00
2018-03-20T10:29:33.763Z,9.00
2018-03-20T10:32:07.699Z,8.90
2018-03-20T10:34:38.753Z,8.90
2018-03-20T10:37:07.264Z,8.90
2018-03-20T10:39:39.150Z,8.90
2018-03-20T10:45:01.529Z,8.90
2018-03-20T10:47:29.869Z,9.00
2018-03-20T10:50:00.323Z,9.00
2018-03-20T10:52:27.931Z,8.90
2018-03-20T10:58:10.656Z,9.00
2018-03-20T11:03:44.255Z,8.90
2018-03-20T11:06:13.152Z,8.90
2018-03-20T11:08:44.711Z,8.90
2018-03-20T11:11:23.384Z,9.10
2018-03-20T11:13:59.488Z,9.00
2018-03-20T11:16:32.343Z,9.10
2018-03-20T11:22:02.419Z,9.00
2018-03-20T11:24:34.482Z,9.00
2018-03-20T11:27:03.216Z,9.00
2018-03-20T11:29:34.295Z,9.10
2018-03-20T11:32:02.441Z,9.10
2018-03-20T11:34:48.082Z,9.10
2018-03-20T11:37:15.788Z,9.00
2018-03-20T11:39:56.569Z,9.00
2018-03-20T11:42:27.122Z,9.10
2018-03-20T11:44:56.459Z,9.10
2018-03-20T11:49:58.515Z,9.10
2018-03-20T11:52:28.271Z,9.00
2018-03-20T11:54:55.973Z,9.10
2018-03-20T11:57:24.974Z,9.10
2018-03-20T12:02:56.626Z,9.10
2018-03-20T12:05:27.861Z,9.10
2018-03-20T12:11:04.513Z,9.10
2018-03-20T12:13:39.790Z,9.10
2018-03-20T12:16:09.512Z,9.10
2018-03-20T12:18:39.046Z,9.20
2018-03-20T12:24:00.037Z,9.20
2018-03-20T12:26:28.863Z,9.20
2018-03-20T12:35:01.681Z,9.20
2018-03-20T12:37:30.827Z,9.10
2018-03-20T12:42:58.101Z,9.10
2018-03-20T12:45:33.476Z,9.10
2018-03-20T12:50:54.041Z,9.10
2018-03-20T12:53:22.465Z,9.20
2018-03-20T12:55:53.181Z,9.20
2018-03-20T13:01:18.753Z,9.20
2018-03-20T13:03:46.825Z,9.10
2018-03-20T13:06:16.266Z,9.10
2018-03-20T13:08:44.597Z,9.20
2018-03-20T13:11:13.191Z,9.20
2018-03-20T13:13:45.063Z,9.20
2018-03-20T13:16:20.877Z,9.20
2018-03-20T13:18:54.024Z,9.20
2018-03-20T13:21:25.102Z,9.20
2018-03-20T13:23:58.628Z,9.20
2018-03-20T13:26:29.345Z,9.20
2018-03-20T13:29:00.484Z,9.20
2018-03-20T13:31:32.778Z,9.20
2018-03-20T13:34:05.459Z,9.20
2018-03-20T13:39:39.830Z,9.20
2018-03-20T13:42:28.617Z,9.20
2018-03-20T13:45:00.511Z,9.20
2018-03-20T13:47:32.984Z,9.20
2018-03-20T13:52:56.495Z,9.20
2018-03-20T13:55:25.046Z,9.20
2018-03-20T14:00:45.898Z,9.20
2018-03-20T14:03:15.597Z,9.20
2018-03-20T14:05:51.252Z,9.20
2018-03-20T14:10:53.165Z,9.20
2018-03-20T15:29:19.896Z,9.20
2018-03-20T15:31:47.598Z,9.40
2018-03-20T15:34:32.724Z,9.40
2018-03-20T15:37:22.678Z,9.40
2018-03-20T15:39:52.036Z,9.40
2018-03-20T15:42:21.561Z,9.40
2018-03-20T15:44:50.744Z,9.40
2018-03-20T15:47:26.925Z,9.40
2018-03-20T15:49:54.773Z,9.50
2018-03-20T15:55:24.618Z,9.50
2018-03-20T15:57:55.190Z,9.50
2018-03-20T16:00:32.199Z,9.50
2018-03-20T16:02:59.958Z,9.50
2018-03-20T16:05:32.342Z,9.50
2018-03-20T16:08:00.964Z,9.50
2018-03-20T16:10:29.821Z,9.50
2018-03-20T16:16:06.005Z,9.50
2018-03-20T16:18:33.965Z,9.50
2018-03-20T16:21:02.691Z,9.50
2018-03-20T16:23:44.657Z,9.60
2018-03-20T16:26:30.011Z,9.60
2018-03-20T16:29:00.294Z,9.70
2018-03-20T16:31:36.768Z,9.90
2018-03-20T16:34:04.488Z,10.50
2018-03-20T16:36:32.060Z,10.90
2018-03-20T16:39:06.628Z,10.90
2018-03-20T17:54:13.702Z,11.20
2018-03-20T17:56:42.474Z,9.30
2018-03-20T17:59:11.165Z,9.30
2018-03-20T18:01:38.934Z,9.30
2018-03-20T18:04:09.815Z,9.30
2018-03-20T18:06:37.643Z,9.30
2018-03-20T18:12:02.135Z,9.30
